sensor_id;sensor_type;location;lat;lon;timestamp;temperature;humidity
20319;DHT22;10317;47.254;11.314;2023-02-13T00:02:09;-2.60;99.90
20319;DHT22;10317;47.254;11.314;2023-02-13T00:04:35;-2.70;99.90
20319;DHT22;10317;47.254;11.314;2023-02-13T00:07:01;-2.70;99.90
20319;DHT22;10317;47.254;11.314;2023-02-13T00:09:26;-2.80;99.90
20319;DHT22;10317;47.254;11.314;2023-02-13T00:11:52;-2.80;99.90
20319;DHT22;10317;47.254;11.314;2023-02-13T00:50:19;-3.10;99.90
20319;DHT22;10317;47.254;11.314;2023-02-13T01:14:03;-3.30;99.90
20319;DHT22;10317;47.254;11.314;2023-02-13T01:16:29;-3.30;99.90
20319;DHT22;10317;47.254;11.314;2023-02-13T01:18:55;-3.30;99.90
20319;DHT22;10317;47.254;11.314;2023-02-13T01:21:21;-3.30;99.90
20319;DHT22;10317;47.254;11.314;2023-02-13T01:23:50;-3.40;99.90
20319;DHT22;10317;47.254;11.314;2023-02-13T01:26:21;-3.30;99.90
20319;DHT22;10317;47.254;11.314;2023-02-13T01:28:51;-3.30;99.90
20319;DHT22;10317;47.254;11.314;2023-02-13T01:31:17;-3.30;99.90
20319;DHT22;10317;47.254;11.314;2023-02-13T01:33:43;-3.40;99.90
20319;DHT22;10317;47.254;11.314;2023-02-13T01:36:10;-3.30;99.90
20319;DHT22;10317;47.254;11.314;2023-02-13T01:38:38;-3.40;99.90
20319;DHT22;10317;47.254;11.314;2023-02-13T01:41:05;-3.40;99.90
20319;DHT22;10317;47.254;11.314;2023-02-13T01:43:54;-3.40;99.90
20319;DHT22;10317;47.254;11.314;2023-02-13T01:46:25;-3.50;99.90
20319;DHT22;10317;47.254;11.314;2023-02-13T01:48:55;-3.50;99.90
20319;DHT22;10317;47.254;11.314;2023-02-13T01:51:29;-3.50;99.90
20319;DHT22;10317;47.254;11.314;2023-02-13T01:54:01;-3.50;99.90
20319;DHT22;10317;47.254;11.314;2023-02-13T01:56:35;-3.50;99.90
20319;DHT22;10317;47.254;11.314;2023-02-13T01:59:05;-3.60;99.90
20319;DHT22;10317;47.254;11.314;2023-02-13T02:01:31;-3.60;99.90
20319;DHT22;10317;47.254;11.314;2023-02-13T02:04:48;-3.60;99.90
20319;DHT22;10317;47.254;11.314;2023-02-13T02:06:59;-3.60;99.90
20319;DHT22;10317;47.254;11.314;2023-02-13T02:09:31;-3.60;99.90
20319;DHT22;10317;47.254;11.314;2023-02-13T02:12:22;-3.60;99.90
20319;DHT22;10317;47.254;11.314;2023-02-13T02:14:51;-3.60;99.90
20319;DHT22;10317;47.254;11.314;2023-02-13T02:17:17;-3.60;99.90
20319;DHT22;10317;47.254;11.314;2023-02-13T02:19:48;-3.60;99.90
20319;DHT22;10317;47.254;11.314;2023-02-13T02:31:16;-3.70;99.90
20319;DHT22;10317;47.254;11.314;2023-02-13T02:38:41;-3.70;99.90
20319;DHT22;10317;47.254;11.314;2023-02-13T02:41:16;-3.70;99.90
20319;DHT22;10317;47.254;11.314;2023-02-13T02:47:07;-3.70;99.90
20319;DHT22;10317;47.254;11.314;2023-02-13T02:58:08;-3.80;99.90
20319;DHT22;10317;47.254;11.314;2023-02-13T03:00:54;-3.80;99.90
20319;DHT22;10317;47.254;11.314;2023-02-13T03:03:46;-3.80;99.90
20319;DHT22;10317;47.254;11.314;2023-02-13T03:06:39;-3.80;99.90
20319;DHT22;10317;47.254;11.314;2023-02-13T03:09:12;-3.80;99.90
20319;DHT22;10317;47.254;11.314;2023-02-13T03:11:58;-3.80;99.90
20319;DHT22;10317;47.254;11.314;2023-02-13T03:14:42;-3.80;99.90
20319;DHT22;10317;47.254;11.314;2023-02-13T03:17:14;-3.90;99.90
20319;DHT22;10317;47.254;11.314;2023-02-13T03:23:15;-4.00;99.90
20319;DHT22;10317;47.254;11.314;2023-02-13T03:28:21;-4.00;99.90
20319;DHT22;10317;47.254;11.314;2023-02-13T03:31:38;-3.90;99.90
20319;DHT22;10317;47.254;11.314;2023-02-13T03:34:12;-4.00;99.90
20319;DHT22;10317;47.254;11.314;2023-02-13T03:36:48;-4.00;99.90
20319;DHT22;10317;47.254;11.314;2023-02-13T03:39:43;-3.90;99.90
20319;DHT22;10317;47.254;11.314;2023-02-13T03:42:32;-4.00;99.90
20319;DHT22;10317;47.254;11.314;2023-02-13T03:45:21;-4.00;99.90
20319;DHT22;10317;47.254;11.314;2023-02-13T03:48:08;-4.00;99.90
20319;DHT22;10317;47.254;11.314;2023-02-13T03:50:56;-4.00;99.90
20319;DHT22;10317;47.254;11.314;2023-02-13T03:53:23;-4.00;99.90
20319;DHT22;10317;47.254;11.314;2023-02-13T03:55:50;-4.10;99.90
20319;DHT22;10317;47.254;11.314;2023-02-13T03:58:39;-4.00;99.90
20319;DHT22;10317;47.254;11.314;2023-02-13T04:01:27;-4.10;99.90
20319;DHT22;10317;47.254;11.314;2023-02-13T04:06:33;-4.10;99.90
20319;DHT22;10317;47.254;11.314;2023-02-13T04:09:00;-4.10;99.90
20319;DHT22;10317;47.254;11.314;2023-02-13T04:14:23;-4.10;99.90
20319;DHT22;10317;47.254;11.314;2023-02-13T04:16:53;-4.10;99.90
20319;DHT22;10317;47.254;11.314;2023-02-13T04:19:22;-4.10;99.90
20319;DHT22;10317;47.254;11.314;2023-02-13T04:21:55;-4.10;99.90
20319;DHT22;10317;47.254;11.314;2023-02-13T04:24:21;-4.20;99.90
20319;DHT22;10317;47.254;11.314;2023-02-13T04:26:47;-4.20;99.90
20319;DHT22;10317;47.254;11.314;2023-02-13T04:29:12;-4.20;99.90
20319;DHT22;10317;47.254;11.314;2023-02-13T04:31:38;-4.20;99.90
20319;DHT22;10317;47.254;11.314;2023-02-13T04:34:05;-4.20;99.90
20319;DHT22;10317;47.254;11.314;2023-02-13T04:36:31;-4.30;99.90
20319;DHT22;10317;47.254;11.314;2023-02-13T04:38:56;-4.20;99.90
20319;DHT22;10317;47.254;11.314;2023-02-13T04:41:22;-4.30;99.90
20319;DHT22;10317;47.254;11.314;2023-02-13T04:43:48;-4.30;99.90
20319;DHT22;10317;47.254;11.314;2023-02-13T04:46:13;-4.30;99.90
20319;DHT22;10317;47.254;11.314;2023-02-13T04:48:39;-4.30;99.90
20319;DHT22;10317;47.254;11.314;2023-02-13T04:51:05;-4.30;99.90
20319;DHT22;10317;47.254;11.314;2023-02-13T04:53:31;-4.30;99.90
20319;DHT22;10317;47.254;11.314;2023-02-13T04:55:56;-4.30;99.90
20319;DHT22;10317;47.254;11.314;2023-02-13T04:58:22;-4.30;99.90
20319;DHT22;10317;47.254;11.314;2023-02-13T05:00:48;-4.40;99.90
20319;DHT22;10317;47.254;11.314;2023-02-13T05:03:13;-4.40;99.90
20319;DHT22;10317;47.254;11.314;2023-02-13T05:05:39;-4.40;99.90
20319;DHT22;10317;47.254;11.314;2023-02-13T05:08:07;-4.40;99.90
20319;DHT22;10317;47.254;11.314;2023-02-13T05:10:33;-4.40;99.90
20319;DHT22;10317;47.254;11.314;2023-02-13T05:12:59;-4.40;99.90
20319;DHT22;10317;47.254;11.314;2023-02-13T05:15:25;-4.40;99.90
20319;DHT22;10317;47.254;11.314;2023-02-13T05:17:51;-4.40;99.90
20319;DHT22;10317;47.254;11.314;2023-02-13T05:20:17;-4.50;99.90
20319;DHT22;10317;47.254;11.314;2023-02-13T05:22:48;-4.50;99.90
20319;DHT22;10317;47.254;11.314;2023-02-13T05:25:34;-4.50;99.90
20319;DHT22;10317;47.254;11.314;2023-02-13T05:28:00;-4.50;99.90
20319;DHT22;10317;47.254;11.314;2023-02-13T05:30:25;-4.50;99.90
20319;DHT22;10317;47.254;11.314;2023-02-13T05:32:51;-4.50;99.90
20319;DHT22;10317;47.254;11.314;2023-02-13T05:35:21;-4.50;99.90
20319;DHT22;10317;47.254;11.314;2023-02-13T05:37:47;-4.50;99.90
20319;DHT22;10317;47.254;11.314;2023-02-13T05:40:13;-4.50;99.90
20319;DHT22;10317;47.254;11.314;2023-02-13T05:42:40;-4.50;99.90
20319;DHT22;10317;47.254;11.314;2023-02-13T05:45:07;-4.50;99.90
20319;DHT22;10317;47.254;11.314;2023-02-13T05:47:33;-4.50;99.90
20319;DHT22;10317;47.254;11.314;2023-02-13T05:49:58;-4.50;99.90
20319;DHT22;10317;47.254;11.314;2023-02-13T05:52:24;-4.60;99.90
20319;DHT22;10317;47.254;11.314;2023-02-13T05:54:50;-4.60;99.90
20319;DHT22;10317;47.254;11.314;2023-02-13T05:57:15;-4.70;99.90
20319;DHT22;10317;47.254;11.314;2023-02-13T05:59:41;-4.70;99.90
20319;DHT22;10317;47.254;11.314;2023-02-13T06:02:07;-4.70;99.90
20319;DHT22;10317;47.254;11.314;2023-02-13T06:04:32;-4.70;99.90
20319;DHT22;10317;47.254;11.314;2023-02-13T06:06:58;-4.70;99.90
20319;DHT22;10317;47.254;11.314;2023-02-13T06:09:24;-4.80;99.90
20319;DHT22;10317;47.254;11.314;2023-02-13T06:11:50;-4.80;99.90
20319;DHT22;10317;47.254;11.314;2023-02-13T06:14:15;-4.70;99.90
20319;DHT22;10317;47.254;11.314;2023-02-13T06:16:41;-4.80;99.90
20319;DHT22;10317;47.254;11.314;2023-02-13T06:19:07;-4.70;99.90
20319;DHT22;10317;47.254;11.314;2023-02-13T06:21:32;-4.70;99.90
20319;DHT22;10317;47.254;11.314;2023-02-13T06:24:05;-4.70;99.90
20319;DHT22;10317;47.254;11.314;2023-02-13T06:26:32;-4.70;99.90
20319;DHT22;10317;47.254;11.314;2023-02-13T06:28:58;-4.70;99.90
20319;DHT22;10317;47.254;11.314;2023-02-13T06:31:24;-4.70;99.90
20319;DHT22;10317;47.254;11.314;2023-02-13T06:33:50;-4.70;99.90
20319;DHT22;10317;47.254;11.314;2023-02-13T06:36:15;-4.70;99.90
20319;DHT22;10317;47.254;11.314;2023-02-13T06:38:41;-4.70;99.90
20319;DHT22;10317;47.254;11.314;2023-02-13T06:41:07;-4.70;99.90
20319;DHT22;10317;47.254;11.314;2023-02-13T06:43:34;-4.60;99.90
20319;DHT22;10317;47.254;11.314;2023-02-13T06:46:05;-4.60;99.90
20319;DHT22;10317;47.254;11.314;2023-02-13T06:48:31;-4.60;99.90
20319;DHT22;10317;47.254;11.314;2023-02-13T06:50:57;-4.60;99.90
20319;DHT22;10317;47.254;11.314;2023-02-13T06:53:23;-4.60;99.90
20319;DHT22;10317;47.254;11.314;2023-02-13T06:55:50;-4.60;99.90
20319;DHT22;10317;47.254;11.314;2023-02-13T06:58:16;-4.50;99.90
20319;DHT22;10317;47.254;11.314;2023-02-13T07:00:42;-4.50;99.90
20319;DHT22;10317;47.254;11.314;2023-02-13T07:03:09;-4.50;99.90
20319;DHT22;10317;47.254;11.314;2023-02-13T07:05:37;-4.40;99.90
20319;DHT22;10317;47.254;11.314;2023-02-13T07:08:03;-4.40;99.90
20319;DHT22;10317;47.254;11.314;2023-02-13T07:10:29;-4.40;99.90
20319;DHT22;10317;47.254;11.314;2023-02-13T07:12:54;-4.40;99.90
20319;DHT22;10317;47.254;11.314;2023-02-13T07:15:20;-4.40;99.90
20319;DHT22;10317;47.254;11.314;2023-02-13T07:17:46;-4.30;99.90
20319;DHT22;10317;47.254;11.314;2023-02-13T07:20:12;-4.30;99.90
20319;DHT22;10317;47.254;11.314;2023-02-13T07:22:37;-4.30;99.90
20319;DHT22;10317;47.254;11.314;2023-02-13T07:25:03;-4.30;99.90
20319;DHT22;10317;47.254;11.314;2023-02-13T07:27:29;-4.20;99.90
20319;DHT22;10317;47.254;11.314;2023-02-13T07:29:56;-4.20;99.90
20319;DHT22;10317;47.254;11.314;2023-02-13T07:32:23;-4.20;99.90
20319;DHT22;10317;47.254;11.314;2023-02-13T07:34:48;-4.10;99.90
20319;DHT22;10317;47.254;11.314;2023-02-13T07:37:14;-4.10;99.90
20319;DHT22;10317;47.254;11.314;2023-02-13T07:39:40;-4.10;99.90
20319;DHT22;10317;47.254;11.314;2023-02-13T07:42:05;-4.10;99.90
20319;DHT22;10317;47.254;11.314;2023-02-13T07:44:31;-4.00;99.90
20319;DHT22;10317;47.254;11.314;2023-02-13T07:46:57;-4.00;99.90
20319;DHT22;10317;47.254;11.314;2023-02-13T07:49:24;-4.00;99.90
20319;DHT22;10317;47.254;11.314;2023-02-13T07:51:50;-4.00;99.90
20319;DHT22;10317;47.254;11.314;2023-02-13T07:54:15;-4.00;99.90
20319;DHT22;10317;47.254;11.314;2023-02-13T07:56:41;-3.90;99.90
20319;DHT22;10317;47.254;11.314;2023-02-13T07:59:07;-3.90;99.90
20319;DHT22;10317;47.254;11.314;2023-02-13T08:01:32;-3.90;99.90
20319;DHT22;10317;47.254;11.314;2023-02-13T08:03:58;-3.80;99.90
20319;DHT22;10317;47.254;11.314;2023-02-13T08:06:24;-3.80;99.90
20319;DHT22;10317;47.254;11.314;2023-02-13T08:08:49;-3.70;99.90
20319;DHT22;10317;47.254;11.314;2023-02-13T08:11:38;-3.70;99.90
20319;DHT22;10317;47.254;11.314;2023-02-13T08:14:23;-3.70;99.90
20319;DHT22;10317;47.254;11.314;2023-02-13T08:16:49;-3.70;99.90
20319;DHT22;10317;47.254;11.314;2023-02-13T08:19:15;-3.60;99.90
20319;DHT22;10317;47.254;11.314;2023-02-13T08:21:41;-3.50;99.90
20319;DHT22;10317;47.254;11.314;2023-02-13T08:24:07;-3.40;99.90
20319;DHT22;10317;47.254;11.314;2023-02-13T08:26:32;-3.30;99.90
20319;DHT22;10317;47.254;11.314;2023-02-13T08:28:59;-3.30;99.90
20319;DHT22;10317;47.254;11.314;2023-02-13T08:31:25;-3.30;99.90
20319;DHT22;10317;47.254;11.314;2023-02-13T08:33:50;-3.20;99.90
20319;DHT22;10317;47.254;11.314;2023-02-13T08:36:16;-3.20;99.90
20319;DHT22;10317;47.254;11.314;2023-02-13T08:38:45;-3.10;99.90
20319;DHT22;10317;47.254;11.314;2023-02-13T08:41:12;-3.10;99.90
20319;DHT22;10317;47.254;11.314;2023-02-13T08:43:38;-3.10;99.90
20319;DHT22;10317;47.254;11.314;2023-02-13T08:46:03;-3.00;99.90
20319;DHT22;10317;47.254;11.314;2023-02-13T08:48:29;-3.00;99.90
20319;DHT22;10317;47.254;11.314;2023-02-13T08:50:55;-3.00;99.90
20319;DHT22;10317;47.254;11.314;2023-02-13T08:53:21;-2.80;99.90
20319;DHT22;10317;47.254;11.314;2023-02-13T08:55:54;-2.70;99.90
20319;DHT22;10317;47.254;11.314;2023-02-13T08:58:20;-2.60;99.90
20319;DHT22;10317;47.254;11.314;2023-02-13T09:00:46;-2.30;99.90
20319;DHT22;10317;47.254;11.314;2023-02-13T09:03:11;-2.10;99.90
20319;DHT22;10317;47.254;11.314;2023-02-13T09:05:37;-1.80;99.90
20319;DHT22;10317;47.254;11.314;2023-02-13T09:08:03;-1.00;99.90
20319;DHT22;10317;47.254;11.314;2023-02-13T09:10:31;-0.10;99.90
20319;DHT22;10317;47.254;11.314;2023-02-13T09:12:56;0.90;99.90
20319;DHT22;10317;47.254;11.314;2023-02-13T09:15:22;1.90;99.90
20319;DHT22;10317;47.254;11.314;2023-02-13T09:17:48;3.00;99.90
20319;DHT22;10317;47.254;11.314;2023-02-13T09:20:14;3.80;99.90
20319;DHT22;10317;47.254;11.314;2023-02-13T09:22:40;4.60;99.90
20319;DHT22;10317;47.254;11.314;2023-02-13T09:25:07;5.30;99.90
20319;DHT22;10317;47.254;11.314;2023-02-13T09:27:33;5.70;99.90
20319;DHT22;10317;47.254;11.314;2023-02-13T09:30:00;5.70;99.90
20319;DHT22;10317;47.254;11.314;2023-02-13T09:32:26;5.60;99.90
20319;DHT22;10317;47.254;11.314;2023-02-13T09:34:52;5.40;99.90
20319;DHT22;10317;47.254;11.314;2023-02-13T09:37:17;5.40;99.90
20319;DHT22;10317;47.254;11.314;2023-02-13T09:39:43;5.20;99.90
20319;DHT22;10317;47.254;11.314;2023-02-13T09:42:35;5.00;99.90
20319;DHT22;10317;47.254;11.314;2023-02-13T09:45:04;4.80;99.90
20319;DHT22;10317;47.254;11.314;2023-02-13T09:47:41;4.90;99.90
20319;DHT22;10317;47.254;11.314;2023-02-13T09:52:40;5.20;99.90
20319;DHT22;10317;47.254;11.314;2023-02-13T09:55:28;5.30;99.90
20319;DHT22;10317;47.254;11.314;2023-02-13T09:58:18;5.60;99.90
20319;DHT22;10317;47.254;11.314;2023-02-13T10:00:53;5.80;99.90
20319;DHT22;10317;47.254;11.314;2023-02-13T10:06:15;6.40;99.90
20319;DHT22;10317;47.254;11.314;2023-02-13T10:22:09;7.10;99.00
20319;DHT22;10317;47.254;11.314;2023-02-13T10:24:56;6.90;98.30
20319;DHT22;10317;47.254;11.314;2023-02-13T10:27:31;6.70;97.30
20319;DHT22;10317;47.254;11.314;2023-02-13T10:32:54;6.80;98.20
20319;DHT22;10317;47.254;11.314;2023-02-13T10:35:41;6.60;97.40
20319;DHT22;10317;47.254;11.314;2023-02-13T10:38:21;6.50;97.50
20319;DHT22;10317;47.254;11.314;2023-02-13T11:02:28;6.50;96.70
20319;DHT22;10317;47.254;11.314;2023-02-13T11:04:59;6.50;97.40
20319;DHT22;10317;47.254;11.314;2023-02-13T11:07:26;6.60;98.30
20319;DHT22;10317;47.254;11.314;2023-02-13T11:09:57;6.70;98.30
20319;DHT22;10317;47.254;11.314;2023-02-13T11:14:58;6.80;97.80
20319;DHT22;10317;47.254;11.314;2023-02-13T11:17:27;6.90;96.70
20319;DHT22;10317;47.254;11.314;2023-02-13T11:19:56;7.00;97.90
20319;DHT22;10317;47.254;11.314;2023-02-13T11:22:36;7.20;98.00
20319;DHT22;10317;47.254;11.314;2023-02-13T11:25:11;7.40;97.60
20319;DHT22;10317;47.254;11.314;2023-02-13T11:27:41;7.30;96.90
20319;DHT22;10317;47.254;11.314;2023-02-13T11:30:34;7.50;96.80
20319;DHT22;10317;47.254;11.314;2023-02-13T11:33:23;7.70;96.60
20319;DHT22;10317;47.254;11.314;2023-02-13T11:36:04;7.80;96.20
20319;DHT22;10317;47.254;11.314;2023-02-13T11:38:30;8.00;95.90
20319;DHT22;10317;47.254;11.314;2023-02-13T11:41:08;8.10;95.10
20319;DHT22;10317;47.254;11.314;2023-02-13T11:43:42;8.30;95.50
20319;DHT22;10317;47.254;11.314;2023-02-13T11:48:42;8.50;94.70
20319;DHT22;10317;47.254;11.314;2023-02-13T11:51:08;8.70;94.80
20319;DHT22;10317;47.254;11.314;2023-02-13T11:53:38;8.90;94.40
20319;DHT22;10317;47.254;11.314;2023-02-13T11:58:36;9.20;93.90
20319;DHT22;10317;47.254;11.314;2023-02-13T12:03:36;9.30;92.80
20319;DHT22;10317;47.254;11.314;2023-02-13T12:06:12;9.30;92.90
20319;DHT22;10317;47.254;11.314;2023-02-13T12:08:40;9.50;93.10
20319;DHT22;10317;47.254;11.314;2023-02-13T12:12:01;9.50;92.40
20319;DHT22;10317;47.254;11.314;2023-02-13T12:14:02;9.60;91.10
20319;DHT22;10317;47.254;11.314;2023-02-13T12:16:35;9.70;90.70
20319;DHT22;10317;47.254;11.314;2023-02-13T12:19:06;9.70;90.80
20319;DHT22;10317;47.254;11.314;2023-02-13T12:24:28;9.90;89.50
20319;DHT22;10317;47.254;11.314;2023-02-13T12:27:11;10.00;89.30
20319;DHT22;10317;47.254;11.314;2023-02-13T12:52:24;10.60;81.50
20319;DHT22;10317;47.254;11.314;2023-02-13T13:18:41;11.20;78.00
20319;DHT22;10317;47.254;11.314;2023-02-13T13:21:22;11.30;77.90
20319;DHT22;10317;47.254;11.314;2023-02-13T13:24:00;11.40;77.10
20319;DHT22;10317;47.254;11.314;2023-02-13T13:26:40;11.40;78.10
20319;DHT22;10317;47.254;11.314;2023-02-13T13:29:31;11.50;77.80
20319;DHT22;10317;47.254;11.314;2023-02-13T13:32:05;11.50;78.40
20319;DHT22;10317;47.254;11.314;2023-02-13T13:34:34;11.60;78.70
20319;DHT22;10317;47.254;11.314;2023-02-13T13:42:23;11.40;77.70
20319;DHT22;10317;47.254;11.314;2023-02-13T13:47:49;11.40;78.90
20319;DHT22;10317;47.254;11.314;2023-02-13T13:58:32;11.40;75.80
20319;DHT22;10317;47.254;11.314;2023-02-13T14:03:40;11.30;76.30
20319;DHT22;10317;47.254;11.314;2023-02-13T14:06:10;11.30;76.10
20319;DHT22;10317;47.254;11.314;2023-02-13T14:13:51;11.20;74.70
20319;DHT22;10317;47.254;11.314;2023-02-13T14:16:42;11.10;74.50
20319;DHT22;10317;47.254;11.314;2023-02-13T14:19:37;11.00;74.20
20319;DHT22;10317;47.254;11.314;2023-02-13T14:24:52;10.70;72.50
20319;DHT22;10317;47.254;11.314;2023-02-13T14:27:24;10.60;74.00
20319;DHT22;10317;47.254;11.314;2023-02-13T14:29:52;10.60;75.50
20319;DHT22;10317;47.254;11.314;2023-02-13T14:32:30;10.40;74.60
20319;DHT22;10317;47.254;11.314;2023-02-13T14:35:23;10.30;74.90
20319;DHT22;10317;47.254;11.314;2023-02-13T14:37:50;10.20;76.20
20319;DHT22;10317;47.254;11.314;2023-02-13T14:42:50;10.00;76.20
20319;DHT22;10317;47.254;11.314;2023-02-13T14:45:21;9.90;76.60
20319;DHT22;10317;47.254;11.314;2023-02-13T14:47:51;9.80;77.90
20319;DHT22;10317;47.254;11.314;2023-02-13T14:50:27;9.60;77.70
20319;DHT22;10317;47.254;11.314;2023-02-13T14:52:54;9.50;78.30
20319;DHT22;10317;47.254;11.314;2023-02-13T14:58:03;9.20;79.20
20319;DHT22;10317;47.254;11.314;2023-02-13T15:03:03;9.10;79.90
20319;DHT22;10317;47.254;11.314;2023-02-13T15:05:34;9.00;79.60
20319;DHT22;10317;47.254;11.314;2023-02-13T15:08:25;8.90;79.70
20319;DHT22;10317;47.254;11.314;2023-02-13T15:10:54;8.80;79.70
20319;DHT22;10317;47.254;11.314;2023-02-13T15:13:34;8.70;79.70
20319;DHT22;10317;47.254;11.314;2023-02-13T15:16:09;8.60;79.80
20319;DHT22;10317;47.254;11.314;2023-02-13T15:18:42;8.50;80.10
20319;DHT22;10317;47.254;11.314;2023-02-13T15:21:18;8.40;80.50
20319;DHT22;10317;47.254;11.314;2023-02-13T15:23:49;8.30;80.80
20319;DHT22;10317;47.254;11.314;2023-02-13T15:26:19;8.10;81.50
20319;DHT22;10317;47.254;11.314;2023-02-13T15:29:01;7.90;81.60
20319;DHT22;10317;47.254;11.314;2023-02-13T15:31:30;7.70;82.50
20319;DHT22;10317;47.254;11.314;2023-02-13T15:33:57;7.60;83.20
20319;DHT22;10317;47.254;11.314;2023-02-13T15:36:25;7.40;83.80
20319;DHT22;10317;47.254;11.314;2023-02-13T15:39:03;7.20;84.00
20319;DHT22;10317;47.254;11.314;2023-02-13T15:41:43;7.10;85.00
20319;DHT22;10317;47.254;11.314;2023-02-13T15:44:17;6.90;85.80
20319;DHT22;10317;47.254;11.314;2023-02-13T15:46:46;6.80;86.20
20319;DHT22;10317;47.254;11.314;2023-02-13T15:49:18;6.60;87.10
20319;DHT22;10317;47.254;11.314;2023-02-13T15:51:45;6.50;87.30
20319;DHT22;10317;47.254;11.314;2023-02-13T15:54:31;6.40;88.20
20319;DHT22;10317;47.254;11.314;2023-02-13T15:57:09;6.30;88.90
20319;DHT22;10317;47.254;11.314;2023-02-13T15:59:37;6.10;90.00
20319;DHT22;10317;47.254;11.314;2023-02-13T16:02:08;6.00;89.50
20319;DHT22;10317;47.254;11.314;2023-02-13T16:04:36;5.90;90.10
20319;DHT22;10317;47.254;11.314;2023-02-13T16:07:02;5.80;90.60
20319;DHT22;10317;47.254;11.314;2023-02-13T16:09:33;5.70;91.10
20319;DHT22;10317;47.254;11.314;2023-02-13T16:14:36;5.50;91.20
20319;DHT22;10317;47.254;11.314;2023-02-13T16:17:16;5.40;91.30
20319;DHT22;10317;47.254;11.314;2023-02-13T16:19:57;5.30;92.00
20319;DHT22;10317;47.254;11.314;2023-02-13T16:27:49;5.00;92.70
20319;DHT22;10317;47.254;11.314;2023-02-13T16:30:28;4.90;92.80
20319;DHT22;10317;47.254;11.314;2023-02-13T16:35:43;4.70;93.50
20319;DHT22;10317;47.254;11.314;2023-02-13T16:44:00;4.50;94.80
20319;DHT22;10317;47.254;11.314;2023-02-13T17:36:55;2.90;99.40
20319;DHT22;10317;47.254;11.314;2023-02-13T17:39:21;2.80;99.90
20319;DHT22;10317;47.254;11.314;2023-02-13T17:41:46;2.70;99.90
20319;DHT22;10317;47.254;11.314;2023-02-13T17:44:12;2.60;99.90
20319;DHT22;10317;47.254;11.314;2023-02-13T17:46:38;2.50;99.90
20319;DHT22;10317;47.254;11.314;2023-02-13T17:49:04;2.40;99.90
20319;DHT22;10317;47.254;11.314;2023-02-13T17:51:31;2.30;99.90
20319;DHT22;10317;47.254;11.314;2023-02-13T17:53:57;2.30;99.90
20319;DHT22;10317;47.254;11.314;2023-02-13T17:56:22;2.20;99.90
20319;DHT22;10317;47.254;11.314;2023-02-13T17:58:48;2.20;99.90
20319;DHT22;10317;47.254;11.314;2023-02-13T18:01:13;2.10;99.90
20319;DHT22;10317;47.254;11.314;2023-02-13T18:03:39;2.00;99.90
20319;DHT22;10317;47.254;11.314;2023-02-13T18:06:08;2.00;99.90
20319;DHT22;10317;47.254;11.314;2023-02-13T18:08:35;1.90;99.90
20319;DHT22;10317;47.254;11.314;2023-02-13T18:11:00;1.70;99.90
20319;DHT22;10317;47.254;11.314;2023-02-13T18:13:26;1.70;99.90
20319;DHT22;10317;47.254;11.314;2023-02-13T18:15:53;1.60;99.90
20319;DHT22;10317;47.254;11.314;2023-02-13T18:18:18;1.60;99.90
20319;DHT22;10317;47.254;11.314;2023-02-13T18:20:44;1.50;99.90
20319;DHT22;10317;47.254;11.314;2023-02-13T18:23:10;1.40;99.90
20319;DHT22;10317;47.254;11.314;2023-02-13T18:25:36;1.40;99.90
20319;DHT22;10317;47.254;11.314;2023-02-13T18:28:02;1.40;99.90
20319;DHT22;10317;47.254;11.314;2023-02-13T18:30:27;1.30;99.90
20319;DHT22;10317;47.254;11.314;2023-02-13T18:32:55;1.20;99.90
20319;DHT22;10317;47.254;11.314;2023-02-13T18:35:21;1.20;99.90
20319;DHT22;10317;47.254;11.314;2023-02-13T18:37:47;1.20;99.90
20319;DHT22;10317;47.254;11.314;2023-02-13T18:40:13;1.10;99.90
20319;DHT22;10317;47.254;11.314;2023-02-13T18:42:42;1.00;99.90
20319;DHT22;10317;47.254;11.314;2023-02-13T18:45:09;1.00;99.90
20319;DHT22;10317;47.254;11.314;2023-02-13T18:47:36;1.00;99.90
20319;DHT22;10317;47.254;11.314;2023-02-13T18:50:05;0.90;99.90
20319;DHT22;10317;47.254;11.314;2023-02-13T18:52:31;0.80;99.90
20319;DHT22;10317;47.254;11.314;2023-02-13T18:54:56;0.70;99.90
20319;DHT22;10317;47.254;11.314;2023-02-13T18:57:23;0.70;99.90
20319;DHT22;10317;47.254;11.314;2023-02-13T18:59:50;0.70;99.90
20319;DHT22;10317;47.254;11.314;2023-02-13T19:02:15;0.70;99.90
20319;DHT22;10317;47.254;11.314;2023-02-13T19:04:41;0.60;99.90
20319;DHT22;10317;47.254;11.314;2023-02-13T19:07:07;0.60;99.90
20319;DHT22;10317;47.254;11.314;2023-02-13T19:09:33;0.60;99.90
20319;DHT22;10317;47.254;11.314;2023-02-13T19:12:05;0.60;99.90
20319;DHT22;10317;47.254;11.314;2023-02-13T19:14:31;0.60;99.90
20319;DHT22;10317;47.254;11.314;2023-02-13T19:16:56;0.60;99.90
20319;DHT22;10317;47.254;11.314;2023-02-13T19:19:22;0.50;99.90
20319;DHT22;10317;47.254;11.314;2023-02-13T19:21:48;0.40;99.90
20319;DHT22;10317;47.254;11.314;2023-02-13T19:24:14;0.40;99.90
20319;DHT22;10317;47.254;11.314;2023-02-13T19:26:39;0.40;99.90
20319;DHT22;10317;47.254;11.314;2023-02-13T19:29:05;0.30;99.90
20319;DHT22;10317;47.254;11.314;2023-02-13T19:31:32;0.30;99.90
20319;DHT22;10317;47.254;11.314;2023-02-13T19:33:58;0.20;99.90
20319;DHT22;10317;47.254;11.314;2023-02-13T19:36:26;0.20;99.90
20319;DHT22;10317;47.254;11.314;2023-02-13T19:38:58;0.10;99.90
20319;DHT22;10317;47.254;11.314;2023-02-13T19:41:24;0.10;99.90
20319;DHT22;10317;47.254;11.314;2023-02-13T19:43:51;0.00;99.90
20319;DHT22;10317;47.254;11.314;2023-02-13T19:46:26;0.00;99.90
20319;DHT22;10317;47.254;11.314;2023-02-13T19:48:52;0.00;99.90
20319;DHT22;10317;47.254;11.314;2023-02-13T19:51:20;-0.10;99.90
20319;DHT22;10317;47.254;11.314;2023-02-13T19:53:46;-0.20;99.90
20319;DHT22;10317;47.254;11.314;2023-02-13T19:56:13;-0.10;99.90
20319;DHT22;10317;47.254;11.314;2023-02-13T19:58:40;-0.10;99.90
20319;DHT22;10317;47.254;11.314;2023-02-13T20:01:16;-0.20;99.90
20319;DHT22;10317;47.254;11.314;2023-02-13T20:03:42;-0.20;99.90
20319;DHT22;10317;47.254;11.314;2023-02-13T20:06:12;-0.20;99.90
20319;DHT22;10317;47.254;11.314;2023-02-13T20:08:39;-0.30;99.90
20319;DHT22;10317;47.254;11.314;2023-02-13T20:11:12;-0.30;99.90
20319;DHT22;10317;47.254;11.314;2023-02-13T20:13:38;-0.20;99.90
20319;DHT22;10317;47.254;11.314;2023-02-13T20:16:05;-0.20;99.90
20319;DHT22;10317;47.254;11.314;2023-02-13T20:18:33;-0.20;99.90
20319;DHT22;10317;47.254;11.314;2023-02-13T20:21:03;-0.30;99.90
20319;DHT22;10317;47.254;11.314;2023-02-13T20:23:29;-0.20;99.90
20319;DHT22;10317;47.254;11.314;2023-02-13T20:25:55;-0.30;99.90
20319;DHT22;10317;47.254;11.314;2023-02-13T20:28:20;-0.30;99.90
20319;DHT22;10317;47.254;11.314;2023-02-13T20:30:46;-0.30;99.90
20319;DHT22;10317;47.254;11.314;2023-02-13T20:33:11;-0.40;99.90
20319;DHT22;10317;47.254;11.314;2023-02-13T20:35:37;-0.40;99.90
20319;DHT22;10317;47.254;11.314;2023-02-13T20:38:03;-0.40;99.90
20319;DHT22;10317;47.254;11.314;2023-02-13T20:40:29;-0.40;99.90